sensor_id;sensor_type;location;lat;lon;timestamp;pressure;altitude;pressure_sealevel;temperature;humidity
49102;BME280;34913;47.520;19.186;2024-03-25T00:01:20;98879.69;;;5.16;82.89
49102;BME280;34913;47.520;19.186;2024-03-25T00:03:45;98878.00;;;5.26;82.40
49102;BME280;34913;47.520;19.186;2024-03-25T00:06:11;98867.47;;;5.26;82.10
49102;BME280;34913;47.520;19.186;2024-03-25T00:08:36;98873.22;;;5.31;81.46
49102;BME280;34913;47.520;19.186;2024-03-25T00:11:02;98875.00;;;5.42;81.49
49102;BME280;34913;47.520;19.186;2024-03-25T00:13:27;98874.75;;;5.34;80.18
49102;BME280;34913;47.520;19.186;2024-03-25T00:15:52;98867.72;;;5.01;81.17
49102;BME280;34913;47.520;19.186;2024-03-25T00:18:18;98870.94;;;5.04;82.40
49102;BME280;34913;47.520;19.186;2024-03-25T00:20:43;98865.94;;;5.01;82.44
49102;BME280;34913;47.520;19.186;2024-03-25T00:23:09;98861.50;;;4.91;81.76
49102;BME280;34913;47.520;19.186;2024-03-25T00:25:34;98860.91;;;4.76;81.59
49102;BME280;34913;47.520;19.186;2024-03-25T00:27:59;98866.03;;;4.66;82.43
49102;BME280;34913;47.520;19.186;2024-03-25T00:30:25;98865.78;;;4.81;82.68
49102;BME280;34913;47.520;19.186;2024-03-25T00:32:50;98859.94;;;4.88;82.67
49102;BME280;34913;47.520;19.186;2024-03-25T00:35:15;98861.50;;;5.02;81.39
49102;BME280;34913;47.520;19.186;2024-03-25T00:37:41;98860.41;;;5.04;80.60
49102;BME280;34913;47.520;19.186;2024-03-25T00:40:07;98855.78;;;5.08;80.89
49102;BME280;34913;47.520;19.186;2024-03-25T00:42:33;98855.41;;;5.13;80.63
49102;BME280;34913;47.520;19.186;2024-03-25T00:44:58;98858.63;;;5.05;80.43
49102;BME280;34913;47.520;19.186;2024-03-25T00:47:24;98852.75;;;5.13;80.25
49102;BME280;34913;47.520;19.186;2024-03-25T00:49:49;98855.31;;;5.14;80.70
49102;BME280;34913;47.520;19.186;2024-03-25T00:52:14;98854.09;;;5.18;80.38
49102;BME280;34913;47.520;19.186;2024-03-25T00:54:39;98856.50;;;5.21;80.38
49102;BME280;34913;47.520;19.186;2024-03-25T00:57:05;98856.84;;;5.17;79.61
49102;BME280;34913;47.520;19.186;2024-03-25T00:59:30;98859.81;;;5.12;79.89
49102;BME280;34913;47.520;19.186;2024-03-25T01:01:56;98856.50;;;5.21;79.99
49102;BME280;34913;47.520;19.186;2024-03-25T01:04:22;98860.28;;;5.28;80.16
49102;BME280;34913;47.520;19.186;2024-03-25T01:06:48;98865.56;;;5.28;80.29
49102;BME280;34913;47.520;19.186;2024-03-25T01:09:13;98865.22;;;5.22;79.79
49102;BME280;34913;47.520;19.186;2024-03-25T01:11:39;98871.09;;;5.14;79.00
49102;BME280;34913;47.520;19.186;2024-03-25T01:14:04;98864.38;;;4.88;79.20
49102;BME280;34913;47.520;19.186;2024-03-25T01:16:29;98862.44;;;4.79;80.60
49102;BME280;34913;47.520;19.186;2024-03-25T01:18:55;98864.81;;;4.82;80.77
49102;BME280;34913;47.520;19.186;2024-03-25T01:21:20;98854.59;;;4.90;79.78
49102;BME280;34913;47.520;19.186;2024-03-25T01:23:45;98862.31;;;4.80;80.00
49102;BME280;34913;47.520;19.186;2024-03-25T01:26:11;98865.31;;;4.75;80.44
49102;BME280;34913;47.520;19.186;2024-03-25T01:28:36;98866.75;;;4.80;80.40
49102;BME280;34913;47.520;19.186;2024-03-25T01:31:01;98855.41;;;4.79;80.78
49102;BME280;34913;47.520;19.186;2024-03-25T01:33:27;98867.94;;;4.87;79.92
49102;BME280;34913;47.520;19.186;2024-03-25T01:35:52;98862.09;;;4.83;79.26
49102;BME280;34913;47.520;19.186;2024-03-25T01:38:20;98860.28;;;4.61;80.04
49102;BME280;34913;47.520;19.186;2024-03-25T01:40:46;98861.50;;;4.68;80.70
49102;BME280;34913;47.520;19.186;2024-03-25T01:43:11;98860.78;;;4.66;80.72
49102;BME280;34913;47.520;19.186;2024-03-25T01:45:37;98859.22;;;4.75;80.42
49102;BME280;34913;47.520;19.186;2024-03-25T01:48:05;98849.06;;;4.59;79.74
49102;BME280;34913;47.520;19.186;2024-03-25T01:50:35;98853.69;;;4.56;80.20
49102;BME280;34913;47.520;19.186;2024-03-25T01:53:01;98853.81;;;4.65;80.29
49102;BME280;34913;47.520;19.186;2024-03-25T01:55:28;98852.31;;;4.74;80.00
49102;BME280;34913;47.520;19.186;2024-03-25T01:57:55;98851.19;;;4.65;79.72
49102;BME280;34913;47.520;19.186;2024-03-25T02:00:21;98843.06;;;4.57;80.80
49102;BME280;34913;47.520;19.186;2024-03-25T02:02:48;98853.94;;;4.64;80.99
49102;BME280;34913;47.520;19.186;2024-03-25T02:05:15;98846.91;;;4.64;80.46
49102;BME280;34913;47.520;19.186;2024-03-25T02:07:41;98848.22;;;4.59;80.56
49102;BME280;34913;47.520;19.186;2024-03-25T02:10:07;98846.06;;;4.64;80.19
49102;BME280;34913;47.520;19.186;2024-03-25T02:12:36;98858.22;;;4.54;80.65
49102;BME280;34913;47.520;19.186;2024-03-25T02:15:02;98852.28;;;4.63;80.09
49102;BME280;34913;47.520;19.186;2024-03-25T02:17:27;98852.63;;;4.58;80.25
49102;BME280;34913;47.520;19.186;2024-03-25T02:19:52;98854.53;;;4.56;80.15
49102;BME280;34913;47.520;19.186;2024-03-25T02:22:18;98863.38;;;4.55;79.92
49102;BME280;34913;47.520;19.186;2024-03-25T02:24:45;98850.47;;;4.63;80.04
49102;BME280;34913;47.520;19.186;2024-03-25T02:27:10;98856.22;;;4.68;80.36
49102;BME280;34913;47.520;19.186;2024-03-25T02:29:40;98850.97;;;4.68;79.74
49102;BME280;34913;47.520;19.186;2024-03-25T02:32:06;98860.66;;;4.68;79.80
49102;BME280;34913;47.520;19.186;2024-03-25T02:34:31;98857.78;;;4.71;79.63
49102;BME280;34913;47.520;19.186;2024-03-25T02:36:57;98850.84;;;4.70;79.36
49102;BME280;34913;47.520;19.186;2024-03-25T02:39:22;98857.06;;;4.69;79.20
49102;BME280;34913;47.520;19.186;2024-03-25T02:41:49;98845.22;;;4.63;78.95
49102;BME280;34913;47.520;19.186;2024-03-25T02:44:15;98851.69;;;4.70;78.96
49102;BME280;34913;47.520;19.186;2024-03-25T02:46:41;98846.44;;;4.59;78.77
49102;BME280;34913;47.520;19.186;2024-03-25T02:49:06;98851.00;;;4.22;80.07
49102;BME280;34913;47.520;19.186;2024-03-25T02:51:31;98860.41;;;4.13;81.14
49102;BME280;34913;47.520;19.186;2024-03-25T02:53:57;98853.22;;;4.15;81.72
49102;BME280;34913;47.520;19.186;2024-03-25T02:56:22;98857.59;;;4.28;81.70
49102;BME280;34913;47.520;19.186;2024-03-25T02:58:47;98845.16;;;4.30;81.14
49102;BME280;34913;47.520;19.186;2024-03-25T03:01:15;98846.84;;;4.31;81.49
49102;BME280;34913;47.520;19.186;2024-03-25T03:03:40;98846.72;;;4.32;81.79
49102;BME280;34913;47.520;19.186;2024-03-25T03:06:06;98844.84;;;4.45;81.87
49102;BME280;34913;47.520;19.186;2024-03-25T03:08:31;98848.31;;;4.57;81.82
49102;BME280;34913;47.520;19.186;2024-03-25T03:10:56;98848.09;;;4.71;82.04
49102;BME280;34913;47.520;19.186;2024-03-25T03:13:22;98850.59;;;4.62;82.49
49102;BME280;34913;47.520;19.186;2024-03-25T03:15:47;98850.84;;;4.70;82.15
49102;BME280;34913;47.520;19.186;2024-03-25T03:18:12;98860.31;;;4.95;81.81
49102;BME280;34913;47.520;19.186;2024-03-25T03:20:38;98863.19;;;5.03;81.37
49102;BME280;34913;47.520;19.186;2024-03-25T03:23:04;98865.22;;;5.11;81.10
49102;BME280;34913;47.520;19.186;2024-03-25T03:25:29;98861.50;;;5.13;81.19
49102;BME280;34913;47.520;19.186;2024-03-25T03:27:56;98863.88;;;5.27;80.53
49102;BME280;34913;47.520;19.186;2024-03-25T03:30:21;98867.25;;;5.29;80.00
49102;BME280;34913;47.520;19.186;2024-03-25T03:32:46;98872.00;;;5.36;79.70
49102;BME280;34913;47.520;19.186;2024-03-25T03:35:12;98874.13;;;5.53;79.53
49102;BME280;34913;47.520;19.186;2024-03-25T03:37:37;98878.22;;;5.46;79.09
49102;BME280;34913;47.520;19.186;2024-03-25T03:40:03;98866.72;;;5.58;78.93
49102;BME280;34913;47.520;19.186;2024-03-25T03:42:31;98873.41;;;5.51;78.94
49102;BME280;34913;47.520;19.186;2024-03-25T03:44:56;98867.09;;;5.42;79.75
49102;BME280;34913;47.520;19.186;2024-03-25T03:47:22;98878.22;;;5.46;79.59
49102;BME280;34913;47.520;19.186;2024-03-25T03:49:47;98883.13;;;5.39;80.59
49102;BME280;34913;47.520;19.186;2024-03-25T03:52:12;98882.41;;;5.48;80.57
49102;BME280;34913;47.520;19.186;2024-03-25T03:54:38;98875.31;;;5.60;80.11
49102;BME280;34913;47.520;19.186;2024-03-25T03:57:04;98887.03;;;5.67;80.43
49102;BME280;34913;47.520;19.186;2024-03-25T03:59:30;98887.25;;;5.75;79.56
49102;BME280;34913;47.520;19.186;2024-03-25T04:01:56;98888.91;;;5.76;79.40
49102;BME280;34913;47.520;19.186;2024-03-25T04:04:21;98884.25;;;5.80;80.07
49102;BME280;34913;47.520;19.186;2024-03-25T04:06:46;98883.44;;;5.79;80.51
49102;BME280;34913;47.520;19.186;2024-03-25T04:09:12;98890.94;;;5.95;80.20
49102;BME280;34913;47.520;19.186;2024-03-25T04:11:38;98892.63;;;5.96;79.62
49102;BME280;34913;47.520;19.186;2024-03-25T04:14:04;98894.88;;;5.89;79.93
49102;BME280;34913;47.520;19.186;2024-03-25T04:16:29;98895.63;;;5.92;80.54
49102;BME280;34913;47.520;19.186;2024-03-25T04:18:56;98905.31;;;5.91;80.33
49102;BME280;34913;47.520;19.186;2024-03-25T04:21:22;98900.53;;;5.85;81.71
49102;BME280;34913;47.520;19.186;2024-03-25T04:23:47;98908.56;;;5.95;81.60
49102;BME280;34913;47.520;19.186;2024-03-25T04:26:14;98905.22;;;5.93;81.92
49102;BME280;34913;47.520;19.186;2024-03-25T04:28:40;98909.97;;;5.87;82.87
49102;BME280;34913;47.520;19.186;2024-03-25T04:31:07;98910.78;;;5.99;82.27
49102;BME280;34913;47.520;19.186;2024-03-25T04:33:33;98908.16;;;6.10;81.88
49102;BME280;34913;47.520;19.186;2024-03-25T04:35:58;98908.34;;;6.19;81.34
49102;BME280;34913;47.520;19.186;2024-03-25T04:38:24;98903.53;;;6.24;81.35
49102;BME280;34913;47.520;19.186;2024-03-25T04:40:49;98907.59;;;6.28;81.77
49102;BME280;34913;47.520;19.186;2024-03-25T04:43:15;98912.09;;;6.37;81.24
49102;BME280;34913;47.520;19.186;2024-03-25T04:45:41;98908.44;;;6.28;82.27
49102;BME280;34913;47.520;19.186;2024-03-25T04:48:06;98913.06;;;6.36;82.40
49102;BME280;34913;47.520;19.186;2024-03-25T04:50:33;98913.44;;;6.31;82.49
49102;BME280;34913;47.520;19.186;2024-03-25T04:52:58;98913.59;;;6.51;80.24
49102;BME280;34913;47.520;19.186;2024-03-25T04:55:24;98912.00;;;6.59;79.68
49102;BME280;34913;47.520;19.186;2024-03-25T04:57:49;98916.25;;;6.71;78.99
49102;BME280;34913;47.520;19.186;2024-03-25T05:00:14;98916.31;;;6.81;79.24
49102;BME280;34913;47.520;19.186;2024-03-25T05:02:40;98918.63;;;6.75;78.50
49102;BME280;34913;47.520;19.186;2024-03-25T05:05:05;98912.38;;;6.76;78.22
49102;BME280;34913;47.520;19.186;2024-03-25T05:07:32;98921.66;;;6.91;78.24
49102;BME280;34913;47.520;19.186;2024-03-25T05:09:57;98922.38;;;7.03;77.17
49102;BME280;34913;47.520;19.186;2024-03-25T05:12:23;98922.19;;;6.94;77.91
49102;BME280;34913;47.520;19.186;2024-03-25T05:14:48;98929.22;;;6.84;78.79
49102;BME280;34913;47.520;19.186;2024-03-25T05:17:13;98924.03;;;6.73;77.83
49102;BME280;34913;47.520;19.186;2024-03-25T05:19:39;98929.00;;;6.87;77.45
49102;BME280;34913;47.520;19.186;2024-03-25T05:22:04;98931.53;;;6.98;74.85
49102;BME280;34913;47.520;19.186;2024-03-25T05:24:29;98936.88;;;7.08;74.77
49102;BME280;34913;47.520;19.186;2024-03-25T05:26:54;98941.16;;;7.30;72.13
49102;BME280;34913;47.520;19.186;2024-03-25T05:29:20;98934.34;;;7.27;72.63
49102;BME280;34913;47.520;19.186;2024-03-25T05:31:59;98950.41;;;7.45;70.41
49102;BME280;34913;47.520;19.186;2024-03-25T05:34:26;98941.22;;;7.49;69.75
49102;BME280;34913;47.520;19.186;2024-03-25T05:36:51;98939.16;;;7.53;70.30
49102;BME280;34913;47.520;19.186;2024-03-25T05:39:17;98950.75;;;7.71;68.92
49102;BME280;34913;47.520;19.186;2024-03-25T05:41:42;98946.44;;;7.70;69.63
49102;BME280;34913;47.520;19.186;2024-03-25T05:44:08;98946.31;;;7.72;69.01
49102;BME280;34913;47.520;19.186;2024-03-25T05:46:33;98955.78;;;7.74;69.41
49102;BME280;34913;47.520;19.186;2024-03-25T05:49:02;98954.41;;;7.90;69.69
49102;BME280;34913;47.520;19.186;2024-03-25T05:51:29;98961.44;;;8.10;69.06
49102;BME280;34913;47.520;19.186;2024-03-25T05:53:55;98967.16;;;8.25;69.71
49102;BME280;34913;47.520;19.186;2024-03-25T05:56:20;98964.00;;;8.41;67.17
49102;BME280;34913;47.520;19.186;2024-03-25T05:58:46;98967.06;;;8.36;67.09
49102;BME280;34913;47.520;19.186;2024-03-25T06:01:12;98974.72;;;8.39;65.96
49102;BME280;34913;47.520;19.186;2024-03-25T06:03:37;98970.81;;;8.53;66.26
49102;BME280;34913;47.520;19.186;2024-03-25T06:06:02;98974.88;;;8.57;65.84
49102;BME280;34913;47.520;19.186;2024-03-25T06:08:28;98976.81;;;8.64;67.29
49102;BME280;34913;47.520;19.186;2024-03-25T06:10:54;98967.78;;;8.57;67.68
49102;BME280;34913;47.520;19.186;2024-03-25T06:13:21;98975.16;;;8.73;66.50
49102;BME280;34913;47.520;19.186;2024-03-25T06:15:46;98961.63;;;8.76;65.81
49102;BME280;34913;47.520;19.186;2024-03-25T06:18:12;98975.44;;;8.80;66.98
49102;BME280;34913;47.520;19.186;2024-03-25T06:20:37;98968.88;;;8.74;67.02
49102;BME280;34913;47.520;19.186;2024-03-25T06:23:03;98970.53;;;8.75;67.37
49102;BME280;34913;47.520;19.186;2024-03-25T06:25:29;98976.81;;;8.84;66.80
49102;BME280;34913;47.520;19.186;2024-03-25T06:27:55;98971.63;;;8.92;65.95
49102;BME280;34913;47.520;19.186;2024-03-25T06:30:21;98963.16;;;8.59;67.49
49102;BME280;34913;47.520;19.186;2024-03-25T06:33:04;98972.09;;;8.58;68.02
49102;BME280;34913;47.520;19.186;2024-03-25T06:35:48;98967.75;;;8.96;66.95
49102;BME280;34913;47.520;19.186;2024-03-25T06:38:13;98963.50;;;9.22;65.65
49102;BME280;34913;47.520;19.186;2024-03-25T06:40:39;98979.38;;;9.69;63.72
49102;BME280;34913;47.520;19.186;2024-03-25T06:43:05;98972.09;;;10.36;62.07
49102;BME280;34913;47.520;19.186;2024-03-25T06:45:30;98982.66;;;10.89;60.09
49102;BME280;34913;47.520;19.186;2024-03-25T06:47:56;98977.25;;;11.43;59.43
49102;BME280;34913;47.520;19.186;2024-03-25T06:50:22;98982.38;;;11.70;57.03
49102;BME280;34913;47.520;19.186;2024-03-25T06:52:48;98977.16;;;11.61;56.72
49102;BME280;34913;47.520;19.186;2024-03-25T06:55:14;98977.56;;;11.40;56.55
49102;BME280;34913;47.520;19.186;2024-03-25T06:57:39;98981.00;;;11.32;56.81
49102;BME280;34913;47.520;19.186;2024-03-25T07:00:05;98988.16;;;11.32;57.29
49102;BME280;34913;47.520;19.186;2024-03-25T07:02:35;98990.25;;;11.02;57.33
49102;BME280;34913;47.520;19.186;2024-03-25T07:05:00;98997.09;;;10.69;59.85
49102;BME280;34913;47.520;19.186;2024-03-25T07:07:25;98994.81;;;10.56;59.11
49102;BME280;34913;47.520;19.186;2024-03-25T07:09:51;98988.38;;;10.41;60.14
49102;BME280;34913;47.520;19.186;2024-03-25T07:12:16;98991.47;;;10.37;59.68
49102;BME280;34913;47.520;19.186;2024-03-25T07:14:41;98992.59;;;10.34;61.32
49102;BME280;34913;47.520;19.186;2024-03-25T07:17:07;98985.72;;;10.14;61.07
49102;BME280;34913;47.520;19.186;2024-03-25T07:19:32;98986.06;;;10.01;60.22
49102;BME280;34913;47.520;19.186;2024-03-25T07:21:57;98990.19;;;10.13;60.59
49102;BME280;34913;47.520;19.186;2024-03-25T07:24:23;98985.69;;;10.23;59.33
49102;BME280;34913;47.520;19.186;2024-03-25T07:26:48;98990.09;;;10.50;58.84
49102;BME280;34913;47.520;19.186;2024-03-25T07:29:13;98997.53;;;10.65;57.68
49102;BME280;34913;47.520;19.186;2024-03-25T07:31:39;99003.31;;;10.96;57.32
49102;BME280;34913;47.520;19.186;2024-03-25T07:34:04;99004.41;;;11.11;55.41
49102;BME280;34913;47.520;19.186;2024-03-25T07:36:29;98994.84;;;11.70;56.05
49102;BME280;34913;47.520;19.186;2024-03-25T07:38:58;99003.78;;;11.69;54.64
49102;BME280;34913;47.520;19.186;2024-03-25T07:41:24;99002.03;;;11.78;54.68
49102;BME280;34913;47.520;19.186;2024-03-25T07:43:49;99009.44;;;11.40;54.57
49102;BME280;34913;47.520;19.186;2024-03-25T07:46:14;99010.72;;;11.36;54.31
49102;BME280;34913;47.520;19.186;2024-03-25T07:48:40;99014.75;;;11.14;55.62
49102;BME280;34913;47.520;19.186;2024-03-25T07:51:07;99019.75;;;10.81;55.88
49102;BME280;34913;47.520;19.186;2024-03-25T07:53:32;99015.59;;;10.79;55.92
49102;BME280;34913;47.520;19.186;2024-03-25T07:55:57;99017.34;;;10.88;55.44
49102;BME280;34913;47.520;19.186;2024-03-25T07:58:23;99022.63;;;11.06;56.25
49102;BME280;34913;47.520;19.186;2024-03-25T08:00:48;99007.56;;;11.84;53.62
49102;BME280;34913;47.520;19.186;2024-03-25T08:03:13;99021.97;;;12.16;55.84
49102;BME280;34913;47.520;19.186;2024-03-25T08:05:39;99013.28;;;11.71;53.38
49102;BME280;34913;47.520;19.186;2024-03-25T08:08:04;99013.91;;;11.65;53.10
49102;BME280;34913;47.520;19.186;2024-03-25T08:10:30;99019.13;;;11.75;52.94
49102;BME280;34913;47.520;19.186;2024-03-25T08:12:55;99016.78;;;11.98;51.98
49102;BME280;34913;47.520;19.186;2024-03-25T08:15:21;99022.72;;;11.66;53.50
49102;BME280;34913;47.520;19.186;2024-03-25T08:17:46;99018.19;;;11.58;52.82
49102;BME280;34913;47.520;19.186;2024-03-25T08:20:12;99022.41;;;11.95;53.40
49102;BME280;34913;47.520;19.186;2024-03-25T08:22:38;99019.00;;;12.11;51.41
49102;BME280;34913;47.520;19.186;2024-03-25T08:25:03;99028.88;;;12.26;51.75
49102;BME280;34913;47.520;19.186;2024-03-25T08:27:29;99019.66;;;12.13;51.28
49102;BME280;34913;47.520;19.186;2024-03-25T08:29:55;99021.09;;;12.41;49.93
49102;BME280;34913;47.520;19.186;2024-03-25T08:32:20;99022.72;;;12.26;49.64
49102;BME280;34913;47.520;19.186;2024-03-25T08:34:45;99013.75;;;12.35;50.85
49102;BME280;34913;47.520;19.186;2024-03-25T08:37:11;99019.78;;;12.53;50.38
49102;BME280;34913;47.520;19.186;2024-03-25T08:39:37;99017.84;;;12.72;50.70
49102;BME280;34913;47.520;19.186;2024-03-25T08:42:02;99019.53;;;13.30;50.07
49102;BME280;34913;47.520;19.186;2024-03-25T08:44:28;99020.16;;;13.64;48.21
49102;BME280;34913;47.520;19.186;2024-03-25T08:46:53;99022.16;;;13.62;47.59
49102;BME280;34913;47.520;19.186;2024-03-25T08:49:18;99017.84;;;13.45;47.38
49102;BME280;34913;47.520;19.186;2024-03-25T08:51:44;99022.66;;;13.58;46.49
49102;BME280;34913;47.520;19.186;2024-03-25T08:54:09;99024.16;;;13.68;46.52
49102;BME280;34913;47.520;19.186;2024-03-25T08:56:34;99019.97;;;13.58;46.41
49102;BME280;34913;47.520;19.186;2024-03-25T08:59:00;99017.59;;;13.87;45.59
49102;BME280;34913;47.520;19.186;2024-03-25T09:01:26;99022.38;;;14.00;46.48
49102;BME280;34913;47.520;19.186;2024-03-25T09:03:52;99012.44;;;13.78;44.19
49102;BME280;34913;47.520;19.186;2024-03-25T09:06:17;99006.59;;;13.74;45.05
49102;BME280;34913;47.520;19.186;2024-03-25T09:08:43;99024.00;;;13.62;45.11
49102;BME280;34913;47.520;19.186;2024-03-25T09:11:26;99011.34;;;13.15;46.92
49102;BME280;34913;47.520;19.186;2024-03-25T09:13:52;99015.50;;;13.09;46.74
49102;BME280;34913;47.520;19.186;2024-03-25T09:16:18;99021.53;;;13.44;46.31
49102;BME280;34913;47.520;19.186;2024-03-25T09:18:43;99014.16;;;13.62;46.45
49102;BME280;34913;47.520;19.186;2024-03-25T09:21:09;99009.50;;;13.56;46.65
49102;BME280;34913;47.520;19.186;2024-03-25T09:23:34;99005.31;;;13.70;45.61
49102;BME280;34913;47.520;19.186;2024-03-25T09:25:59;99000.69;;;14.03;44.46
49102;BME280;34913;47.520;19.186;2024-03-25T09:28:25;99006.06;;;13.95;44.62
49102;BME280;34913;47.520;19.186;2024-03-25T09:30:50;98998.53;;;14.07;44.68
49102;BME280;34913;47.520;19.186;2024-03-25T09:33:15;98996.56;;;13.92;44.22
49102;BME280;34913;47.520;19.186;2024-03-25T09:35:41;99004.56;;;13.92;45.08
49102;BME280;34913;47.520;19.186;2024-03-25T09:38:06;99009.50;;;13.48;45.17
49102;BME280;34913;47.520;19.186;2024-03-25T09:40:33;99011.34;;;13.48;45.89
49102;BME280;34913;47.520;19.186;2024-03-25T09:43:02;99009.03;;;13.36;47.07
49102;BME280;34913;47.520;19.186;2024-03-25T09:45:29;99013.19;;;12.98;46.03
49102;BME280;34913;47.520;19.186;2024-03-25T09:47:55;99017.84;;;12.96;47.25
49102;BME280;34913;47.520;19.186;2024-03-25T09:50:21;99009.69;;;13.47;46.92
49102;BME280;34913;47.520;19.186;2024-03-25T09:52:47;99012.38;;;13.30;47.89
49102;BME280;34913;47.520;19.186;2024-03-25T09:55:13;99009.53;;;13.16;46.98
49102;BME280;34913;47.520;19.186;2024-03-25T09:57:39;99007.03;;;13.47;45.52
49102;BME280;34913;47.520;19.186;2024-03-25T10:00:09;99014.50;;;13.59;49.15
49102;BME280;34913;47.520;19.186;2024-03-25T10:02:37;99001.34;;;14.05;44.00
49102;BME280;34913;47.520;19.186;2024-03-25T10:05:02;98989.09;;;14.58;43.38
49102;BME280;34913;47.520;19.186;2024-03-25T10:07:28;99000.06;;;14.63;41.94
49102;BME280;34913;47.520;19.186;2024-03-25T10:09:54;99000.56;;;14.28;44.12
49102;BME280;34913;47.520;19.186;2024-03-25T10:12:19;98999.03;;;14.02;46.88
49102;BME280;34913;47.520;19.186;2024-03-25T10:14:45;98996.41;;;13.94;46.56
49102;BME280;34913;47.520;19.186;2024-03-25T10:17:10;99003.13;;;14.13;47.12
49102;BME280;34913;47.520;19.186;2024-03-25T10:19:36;99013.72;;;14.68;44.91
49102;BME280;34913;47.520;19.186;2024-03-25T10:22:05;99005.00;;;14.97;43.28
49102;BME280;34913;47.520;19.186;2024-03-25T10:24:38;98991.75;;;15.42;43.81
49102;BME280;34913;47.520;19.186;2024-03-25T10:27:05;99004.94;;;15.43;41.16
49102;BME280;34913;47.520;19.186;2024-03-25T10:29:30;98992.94;;;15.39;41.22
49102;BME280;34913;47.520;19.186;2024-03-25T10:32:01;98994.03;;;15.82;40.80
49102;BME280;34913;47.520;19.186;2024-03-25T10:34:29;98974.28;;;16.34;39.85
49102;BME280;34913;47.520;19.186;2024-03-25T10:36:56;98970.47;;;16.80;37.86
49102;BME280;34913;47.520;19.186;2024-03-25T10:39:25;98979.72;;;16.77;37.61
49102;BME280;34913;47.520;19.186;2024-03-25T10:41:55;98990.63;;;16.97;38.45
49102;BME280;34913;47.520;19.186;2024-03-25T10:44:21;98985.44;;;17.17;36.76
49102;BME280;34913;47.520;19.186;2024-03-25T10:46:47;98988.81;;;17.25;35.67
49102;BME280;34913;47.520;19.186;2024-03-25T10:49:21;98973.84;;;17.38;35.62
49102;BME280;34913;47.520;19.186;2024-03-25T10:51:53;98972.84;;;17.45;35.16
49102;BME280;34913;47.520;19.186;2024-03-25T10:54:19;98972.81;;;17.11;35.11
49102;BME280;34913;47.520;19.186;2024-03-25T10:56:45;98975.41;;;16.61;36.85
49102;BME280;34913;47.520;19.186;2024-03-25T10:59:18;98985.16;;;15.97;38.60
49102;BME280;34913;47.520;19.186;2024-03-25T11:01:45;98978.59;;;15.70;41.20
49102;BME280;34913;47.520;19.186;2024-03-25T11:04:11;98977.59;;;16.00;38.63
49102;BME280;34913;47.520;19.186;2024-03-25T11:06:37;98964.91;;;16.24;38.06
49102;BME280;34913;47.520;19.186;2024-03-25T11:09:02;98975.91;;;16.50;37.55
49102;BME280;34913;47.520;19.186;2024-03-25T11:11:32;98968.72;;;16.00;38.82
49102;BME280;34913;47.520;19.186;2024-03-25T11:13:58;98964.69;;;15.89;37.82
49102;BME280;34913;47.520;19.186;2024-03-25T11:16:30;98959.16;;;16.63;37.00
49102;BME280;34913;47.520;19.186;2024-03-25T11:19:00;98975.78;;;16.37;36.15
49102;BME280;34913;47.520;19.186;2024-03-25T11:21:25;98993.09;;;15.00;38.91
49102;BME280;34913;47.520;19.186;2024-03-25T11:23:50;99018.91;;;13.91;46.31
49102;BME280;34913;47.520;19.186;2024-03-25T11:28:45;99020.66;;;12.95;48.25
49102;BME280;34913;47.520;19.186;2024-03-25T11:31:11;99021.22;;;12.40;51.86
49102;BME280;34913;47.520;19.186;2024-03-25T11:33:40;98997.25;;;12.23;52.36
49102;BME280;34913;47.520;19.186;2024-03-25T11:36:05;98999.91;;;12.32;52.01
49102;BME280;34913;47.520;19.186;2024-03-25T11:38:31;98998.84;;;12.58;54.30
49102;BME280;34913;47.520;19.186;2024-03-25T11:40:56;99000.53;;;12.84;57.48
49102;BME280;34913;47.520;19.186;2024-03-25T11:43:22;98993.69;;;13.55;54.98
49102;BME280;34913;47.520;19.186;2024-03-25T11:45:48;98994.53;;;14.03;53.12
49102;BME280;34913;47.520;19.186;2024-03-25T11:48:15;98986.59;;;13.86;49.88
49102;BME280;34913;47.520;19.186;2024-03-25T11:50:40;98995.84;;;13.59;51.12
49102;BME280;34913;47.520;19.186;2024-03-25T11:53:07;99004.78;;;13.66;52.10
49102;BME280;34913;47.520;19.186;2024-03-25T11:55:32;99019.69;;;13.45;47.45
49102;BME280;34913;47.520;19.186;2024-03-25T11:57:58;99002.84;;;13.52;47.18
49102;BME280;34913;47.520;19.186;2024-03-25T12:00:24;99007.00;;;13.63;45.08
49102;BME280;34913;47.520;19.186;2024-03-25T12:02:49;99012.06;;;13.89;45.13
49102;BME280;34913;47.520;19.186;2024-03-25T12:05:16;99009.16;;;14.15;45.41
49102;BME280;34913;47.520;19.186;2024-03-25T12:07:42;99009.47;;;14.51;44.27
49102;BME280;34913;47.520;19.186;2024-03-25T12:10:07;98995.25;;;14.82;45.30
49102;BME280;34913;47.520;19.186;2024-03-25T12:12:51;98993.16;;;15.15;42.61
49102;BME280;34913;47.520;19.186;2024-03-25T12:15:17;98998.06;;;15.63;41.90
49102;BME280;34913;47.520;19.186;2024-03-25T12:17:42;98974.56;;;15.74;42.02
49102;BME280;34913;47.520;19.186;2024-03-25T12:20:08;98992.47;;;15.73;42.01
49102;BME280;34913;47.520;19.186;2024-03-25T12:22:35;98992.09;;;15.91;40.82
49102;BME280;34913;47.520;19.186;2024-03-25T12:25:02;98991.19;;;15.46;40.94
49102;BME280;34913;47.520;19.186;2024-03-25T12:27:29;99004.00;;;15.36;42.88
49102;BME280;34913;47.520;19.186;2024-03-25T12:30:09;99008.09;;;14.86;43.10
49102;BME280;34913;47.520;19.186;2024-03-25T12:32:41;99014.88;;;14.35;44.80
49102;BME280;34913;47.520;19.186;2024-03-25T12:35:10;99007.44;;;13.83;47.25
49102;BME280;34913;47.520;19.186;2024-03-25T12:37:40;99035.75;;;13.92;47.89
49102;BME280;34913;47.520;19.186;2024-03-25T12:40:06;99033.16;;;13.59;49.20
49102;BME280;34913;47.520;19.186;2024-03-25T12:42:33;99016.25;;;13.91;47.84
49102;BME280;34913;47.520;19.186;2024-03-25T12:44:59;99007.47;;;13.58;47.89
49102;BME280;34913;47.520;19.186;2024-03-25T12:47:25;99016.53;;;13.96;47.73
49102;BME280;34913;47.520;19.186;2024-03-25T12:49:50;99009.34;;;14.05;46.75
49102;BME280;34913;47.520;19.186;2024-03-25T12:52:15;99015.25;;;14.32;47.01